Satellite Beach, Florida
Current Conditions -  °F | °C
As of 9:58 PM on Saturday 24 Jan 2015 (Local Time) from KCOF Reporting Station
Clear Clear  
Wind Chill: 54°   Ceiling: Unl
Heat Index: 54°   Visibility: 10mi
Dew Point: 48°   Wind: 18mph
Humidity: 81%   Direction: 290°WNW
Pressure: 30.01"   Gusts: NA
Location:  28.17°N, 80.6°W
Report Text: KCOF 250258Z AUTO 29016KT 10SM CLR 12/09 A3001 RMK AO2 SLP167 T01200088 52016 CHINO RWY02 $
Loading
Personal Weather Stations






























Interactive Weather Map New forecast layout! Learn more

10-Day Weather Forecast

Advertisements
Track Severe Weather on mobile